Main page
METAR-TAF:

METAR-TAF

Airports :

Toulouse–Blagnac Airport

Toulouse, France

latitude: 43-38N, longitude: 001-22E, elevation: 152 m

Current weather observation

The report was made 12 minutes ago, at 18:30 UTC
Wind 5 kt from the South
Temperature 7°C
Humidity 76%
Pressure 1001 hPa
Visibility 10 km or more
Few clouds at a height of 3300 ft
Scattered clouds at a height of 6000 ft

METAR: LFBO 191830Z AUTO 18005KT 9999 FEW033 SCT060 07/03 Q1001 NOSIG

Time: 19:42 (18:42 UTC)

Forecast

The report was made 1 hour and 42 minutes ago, at 17:00 UTC
Forecast valid from 19 at 18 UTC to 20 at 24 UTC
Wind 5 kt from the South/Southeast
Visibility 10 km or more
Broken clouds at a height of 3000 ft
Becoming
from 19 at 18 UTC to 19 at 20 UTC
Wind 3 kt from variable directions
Temporary
from 20 at 09 UTC to 20 at 15 UTC
Wind 5 kt from the North/Northwest

TAF: LFBO 191700Z 1918/2024 16005KT 9999 BKN030 BECMG 1918/1920 VRB03KT TEMPO 2009/2015 34005KT

Weather observations and forecasts of more than 4000 airports (METAR and TAF reports).

The available stations are represented by yellow and red dots on the map.

Hover mouse over dot to see the name of the station.

Then click to see weather observations and forecasts.

To change the map : click on the green buttons with a black cross to zoom in, on the green button with a dash to zoom out, or on the green arrows for adjacent maps.


METAR-TAF: